Arrecife, Spain
Current Conditions -  °F | °C
As of 9:00 AM on Monday 24 Nov 2014 (Local Time) from GCRR Reporting Station
Broken Clouds Broken Clouds  
Wind Chill: 68°   Ceiling: 4500
Heat Index: 68°   Visibility: 6mi
Dew Point: 55°   Wind: 14mph
Humidity: 64%   Direction: 360°N
Pressure: 30.15"   Gusts: NA
Location:  28.96°N, 13.55°W
Report Text: GCRR 240900Z 36012KT 9999 FEW030 BKN045 20/13 Q1021
Loading
Personal Weather Stations






























Interactive Weather Map New forecast layout! Learn more

10-Day Weather Forecast

Advertisements
Track Severe Weather on mobile